createdAt,value
2018-11-25T00:01:20.028Z,15.47
2018-11-25T00:03:48.807Z,14.93
2018-11-25T00:06:16.777Z,15.50
2018-11-25T00:08:44.698Z,14.37
2018-11-25T00:11:12.586Z,15.37
2018-11-25T00:13:40.342Z,16.43
2018-11-25T00:16:08.004Z,16.50
2018-11-25T00:18:35.950Z,17.10
2018-11-25T00:21:03.757Z,16.43
2018-11-25T00:23:31.558Z,15.67
2018-11-25T00:25:59.261Z,16.00
2018-11-25T00:28:26.967Z,16.33
2018-11-25T00:30:54.949Z,15.60
2018-11-25T00:33:22.724Z,16.27
2018-11-25T00:35:50.446Z,16.43
2018-11-25T00:38:18.364Z,16.77
2018-11-25T00:40:46.240Z,17.47
2018-11-25T00:43:14.234Z,16.40
2018-11-25T00:45:42.130Z,16.83
2018-11-25T00:48:09.923Z,16.33
2018-11-25T00:50:37.778Z,16.53
2018-11-25T00:53:06.056Z,16.43
2018-11-25T00:55:33.940Z,16.03
2018-11-25T00:58:01.721Z,16.77
2018-11-25T01:00:29.593Z,16.23
2018-11-25T01:02:57.342Z,16.13
2018-11-25T01:05:25.104Z,16.00
2018-11-25T01:07:52.905Z,16.83
2018-11-25T01:10:20.745Z,16.53
2018-11-25T01:12:48.661Z,16.63
2018-11-25T01:15:17.261Z,16.17
2018-11-25T01:17:45.182Z,16.73
2018-11-25T01:20:15.250Z,16.83
2018-11-25T01:22:43.640Z,16.43
2018-11-25T01:25:11.533Z,15.77
2018-11-25T01:27:39.454Z,17.53
2018-11-25T01:30:11.764Z,16.17
2018-11-25T01:32:39.524Z,16.23
2018-11-25T01:35:08.721Z,16.37
2018-11-25T01:37:36.486Z,16.97
2018-11-25T01:40:09.233Z,16.83
2018-11-25T01:42:37.183Z,16.77
2018-11-25T01:45:05.970Z,16.33
2018-11-25T01:47:33.814Z,15.83
2018-11-25T01:50:01.760Z,18.27
2018-11-25T01:52:29.583Z,18.83
2018-11-25T01:54:57.601Z,18.47
2018-11-25T01:57:25.475Z,18.50
2018-11-25T01:59:53.230Z,18.50
2018-11-25T02:02:20.965Z,18.53
2018-11-25T02:04:48.797Z,19.10
2018-11-25T02:07:16.628Z,18.43
2018-11-25T02:09:44.316Z,18.57
2018-11-25T02:12:12.065Z,19.43
2018-11-25T02:14:39.869Z,19.63
2018-11-25T02:17:07.717Z,18.97
2018-11-25T02:19:35.577Z,18.67
2018-11-25T02:22:03.357Z,18.13
2018-11-25T02:24:31.132Z,19.13
2018-11-25T02:26:58.908Z,19.47
2018-11-25T02:29:26.782Z,18.57
2018-11-25T02:31:54.563Z,18.70
2018-11-25T02:34:22.386Z,19.67
2018-11-25T02:36:51.969Z,19.47
2018-11-25T02:39:20.073Z,19.30
2018-11-25T02:41:47.859Z,18.13
2018-11-25T02:44:15.624Z,20.20
2018-11-25T02:46:43.418Z,21.17
2018-11-25T02:49:11.276Z,20.53
2018-11-25T02:51:39.023Z,20.23
2018-11-25T02:54:06.825Z,19.57
2018-11-25T02:56:34.577Z,20.93
2018-11-25T02:59:02.500Z,21.93
2018-11-25T03:01:30.403Z,21.13
2018-11-25T03:03:58.135Z,20.87
2018-11-25T03:06:25.816Z,22.20
2018-11-25T03:08:53.651Z,21.73
2018-11-25T03:11:21.384Z,21.07
2018-11-25T03:13:49.283Z,22.33
2018-11-25T03:16:17.043Z,22.10
2018-11-25T03:18:44.789Z,21.87
2018-11-25T03:21:12.563Z,22.43
2018-11-25T03:23:40.368Z,22.90
2018-11-25T03:26:08.138Z,22.37
2018-11-25T03:28:35.969Z,22.03
2018-11-25T03:31:04.187Z,23.70
2018-11-25T03:33:32.013Z,23.70
2018-11-25T03:36:00.962Z,25.17
2018-11-25T03:38:28.861Z,24.40
2018-11-25T03:40:56.879Z,25.23
2018-11-25T03:43:24.746Z,24.53
2018-11-25T03:45:52.580Z,26.33
2018-11-25T03:48:20.570Z,25.70
2018-11-25T03:50:48.417Z,26.73
2018-11-25T03:53:16.398Z,26.17
2018-11-25T03:55:44.304Z,25.60
2018-11-25T03:58:12.055Z,25.20
2018-11-25T04:00:39.952Z,24.60
2018-11-25T04:03:07.872Z,25.70
2018-11-25T04:05:35.699Z,25.83
2018-11-25T04:08:03.590Z,26.73
2018-11-25T04:10:31.503Z,25.20
2018-11-25T04:12:59.418Z,25.33
2018-11-25T04:15:27.277Z,25.47
2018-11-25T04:17:55.054Z,25.87
2018-11-25T04:20:23.105Z,25.00
2018-11-25T04:22:51.134Z,25.33
2018-11-25T04:27:52.703Z,25.37
2018-11-25T04:30:20.621Z,24.87
2018-11-25T04:32:49.456Z,25.53
2018-11-25T04:35:17.551Z,25.53
2018-11-25T04:37:45.662Z,25.13
2018-11-25T04:40:16.513Z,26.80
2018-11-25T04:42:44.899Z,25.20
2018-11-25T04:45:14.946Z,25.63
2018-11-25T04:47:42.999Z,26.47
2018-11-25T04:50:14.008Z,27.17
2018-11-25T04:52:41.756Z,26.60
2018-11-25T04:55:10.030Z,25.13
2018-11-25T04:57:38.017Z,24.70
2018-11-25T05:00:10.994Z,25.30
2018-11-25T05:02:39.600Z,26.50
2018-11-25T05:05:09.037Z,27.37
2018-11-25T05:07:36.949Z,26.60
2018-11-25T05:10:06.326Z,28.00
2018-11-25T05:12:34.261Z,27.67
2018-11-25T05:15:02.173Z,31.63
2018-11-25T05:17:30.234Z,29.07
2018-11-25T05:19:57.912Z,27.70
2018-11-25T05:22:26.352Z,26.63
2018-11-25T05:24:54.425Z,24.77
2018-11-25T05:31:02.366Z,23.10
2018-11-25T05:33:29.877Z,21.77
2018-11-25T05:35:57.401Z,23.47
2018-11-25T05:38:24.929Z,23.83
2018-11-25T05:40:52.534Z,24.00
2018-11-25T05:43:20.099Z,26.07
2018-11-25T05:45:47.660Z,36.80
2018-11-25T05:48:15.478Z,38.70
2018-11-25T05:50:43.023Z,31.47
2018-11-25T05:53:10.603Z,34.67
2018-11-25T05:55:38.184Z,30.47
2018-11-25T05:58:05.847Z,27.93
2018-11-25T06:00:33.621Z,24.37
2018-11-25T06:03:01.387Z,24.73
2018-11-25T06:05:28.953Z,23.73
2018-11-25T06:07:57.141Z,24.77
2018-11-25T06:10:24.733Z,23.70
2018-11-25T06:12:52.684Z,26.00
2018-11-25T06:15:20.275Z,26.73
2018-11-25T06:17:47.898Z,24.10
2018-11-25T06:20:16.549Z,24.73
2018-11-25T06:22:44.605Z,24.73
2018-11-25T06:25:13.672Z,24.73
2018-11-25T06:27:41.231Z,24.60
2018-11-25T06:30:11.347Z,24.13
2018-11-25T06:32:38.967Z,24.30
2018-11-25T06:35:07.920Z,24.93
2018-11-25T06:37:35.528Z,25.77
2018-11-25T06:40:04.042Z,22.00
2018-11-25T06:42:31.617Z,20.27
2018-11-25T06:44:59.109Z,19.63
2018-11-25T06:47:26.659Z,20.83
2018-11-25T06:49:54.237Z,22.10
2018-11-25T06:52:21.811Z,21.10
2018-11-25T06:54:49.342Z,20.80
2018-11-25T06:57:17.047Z,22.70
2018-11-25T06:59:44.620Z,24.70
2018-11-25T07:02:12.235Z,24.63
2018-11-25T07:04:39.870Z,23.80
2018-11-25T07:07:07.441Z,22.43
2018-11-25T07:09:34.989Z,22.00
2018-11-25T07:12:02.539Z,21.27
2018-11-25T07:14:30.056Z,21.53
2018-11-25T07:16:57.666Z,21.40
2018-11-25T07:19:25.218Z,21.30
2018-11-25T07:21:52.812Z,22.13
2018-11-25T07:24:20.363Z,21.80
2018-11-25T07:26:48.052Z,20.40
2018-11-25T07:29:15.865Z,21.03
2018-11-25T07:31:43.538Z,21.23
2018-11-25T07:34:11.168Z,21.63
2018-11-25T07:36:38.721Z,24.60
2018-11-25T07:39:07.015Z,22.50
2018-11-25T07:41:34.669Z,23.20
2018-11-25T07:44:02.755Z,21.93
2018-11-25T07:46:30.251Z,23.00
2018-11-25T07:48:58.488Z,23.73
2018-11-25T07:51:26.075Z,23.43
2018-11-25T07:53:54.115Z,23.97
2018-11-25T07:56:21.685Z,22.70
2018-11-25T07:58:49.301Z,22.77
2018-11-25T08:01:16.856Z,23.10
2018-11-25T08:03:44.523Z,22.00
2018-11-25T08:06:12.088Z,20.73
2018-11-25T08:08:39.695Z,21.60
2018-11-25T08:11:07.269Z,21.30
2018-11-25T08:13:34.933Z,20.40
2018-11-25T08:16:02.527Z,20.37
2018-11-25T08:18:30.142Z,20.07
2018-11-25T08:20:57.727Z,20.27
2018-11-25T08:23:25.299Z,19.47
2018-11-25T08:25:53.224Z,20.63
2018-11-25T08:28:20.902Z,20.00
2018-11-25T08:30:48.468Z,20.93
2018-11-25T08:33:16.076Z,19.27
2018-11-25T08:35:43.672Z,18.60
2018-11-25T08:38:11.219Z,19.50
2018-11-25T08:40:38.804Z,18.77
2018-11-25T08:43:06.358Z,19.37
2018-11-25T08:45:33.967Z,18.43
2018-11-25T08:48:01.558Z,19.30
2018-11-25T08:50:29.091Z,18.87
2018-11-25T08:52:56.743Z,18.03
2018-11-25T08:55:25.108Z,18.67
2018-11-25T08:57:53.433Z,18.27
2018-11-25T09:00:22.085Z,18.70
2018-11-25T09:02:50.568Z,18.53
2018-11-25T09:05:18.238Z,18.00
2018-11-25T09:07:45.901Z,17.87
2018-11-25T09:10:16.428Z,18.43
2018-11-25T09:12:45.053Z,17.70
2018-11-25T09:15:19.007Z,17.97
2018-11-25T09:17:46.801Z,17.90
2018-11-25T09:20:17.462Z,18.10
2018-11-25T09:22:45.296Z,16.80
2018-11-25T09:25:16.413Z,18.23
2018-11-25T09:27:44.453Z,17.47
2018-11-25T09:30:17.512Z,16.50
2018-11-25T09:32:45.238Z,15.83
2018-11-25T09:35:13.057Z,15.70
2018-11-25T09:37:40.668Z,16.37
2018-11-25T09:40:11.517Z,15.50
2018-11-25T09:42:39.240Z,15.37
2018-11-25T09:45:08.785Z,15.73
2018-11-25T09:47:40.575Z,16.80
2018-11-25T09:50:13.117Z,14.37
2018-11-25T09:52:40.769Z,15.60
2018-11-25T09:55:10.398Z,14.60
2018-11-25T09:57:38.583Z,13.77
2018-11-25T10:00:12.968Z,14.00
2018-11-25T10:02:40.621Z,13.87
2018-11-25T10:05:08.665Z,12.93
2018-11-25T10:07:36.188Z,13.83
2018-11-25T10:10:05.209Z,13.27
2018-11-25T10:12:33.010Z,13.70
2018-11-25T10:15:03.234Z,14.20
2018-11-25T10:17:31.144Z,13.50
2018-11-25T10:19:58.733Z,15.07
2018-11-25T10:22:26.275Z,13.57
2018-11-25T10:24:54.251Z,13.90
2018-11-25T10:27:21.844Z,14.20
2018-11-25T10:29:49.530Z,15.00
2018-11-25T10:32:17.140Z,13.50
2018-11-25T10:34:45.069Z,14.13
2018-11-25T10:37:14.892Z,15.43
2018-11-25T10:39:42.513Z,14.43
2018-11-25T10:42:10.435Z,13.77
2018-11-25T10:44:37.990Z,13.90
2018-11-25T10:47:07.319Z,13.37
2018-11-25T10:49:34.840Z,13.57
2018-11-25T10:52:02.649Z,13.43
2018-11-25T10:54:30.257Z,13.53
2018-11-25T10:56:57.811Z,12.80
2018-11-25T10:59:25.362Z,12.87
2018-11-25T11:01:58.547Z,14.13
2018-11-25T11:04:31.867Z,13.10
2018-11-25T11:07:06.126Z,14.00
2018-11-25T11:09:33.794Z,13.20
2018-11-25T11:12:01.596Z,12.60
2018-11-25T11:14:29.277Z,13.73
2018-11-25T11:16:59.211Z,12.47
2018-11-25T11:19:26.905Z,12.80
2018-11-25T11:21:54.496Z,11.97
2018-11-25T11:24:22.053Z,12.17
2018-11-25T11:26:49.597Z,12.13
2018-11-25T11:29:17.164Z,12.60
2018-11-25T11:31:44.792Z,11.57
2018-11-25T11:34:12.477Z,11.60
2018-11-25T11:36:41.915Z,13.27
2018-11-25T11:39:09.779Z,12.03
2018-11-25T11:41:40.191Z,12.37
2018-11-25T11:44:07.807Z,12.60
2018-11-25T11:46:38.483Z,12.10
2018-11-25T11:49:06.590Z,11.70
2018-11-25T11:51:34.313Z,12.10
2018-11-25T11:54:01.958Z,11.57
2018-11-25T11:56:29.668Z,12.17
2018-11-25T11:58:57.421Z,12.97
2018-11-25T12:01:25.411Z,12.47
2018-11-25T12:03:53.087Z,14.03
2018-11-25T12:06:20.734Z,12.37
2018-11-25T12:08:48.835Z,13.10
2018-11-25T12:11:16.524Z,13.70
2018-11-25T12:13:44.180Z,12.90
2018-11-25T12:16:15.453Z,13.07
2018-11-25T12:18:43.160Z,12.77
2018-11-25T12:21:26.032Z,13.63
2018-11-25T12:23:53.698Z,12.40
2018-11-25T12:26:21.409Z,12.30
2018-11-25T12:28:49.221Z,13.00
2018-11-25T12:31:17.076Z,11.57
2018-11-25T12:33:44.732Z,11.90
2018-11-25T12:36:12.911Z,12.93
2018-11-25T12:38:42.657Z,12.80
2018-11-25T12:41:10.537Z,11.93
2018-11-25T12:43:42.690Z,12.30
2018-11-25T12:46:10.312Z,12.43
2018-11-25T12:48:37.934Z,12.23
2018-11-25T12:51:06.094Z,12.87
2018-11-25T12:53:34.817Z,12.87
2018-11-25T12:56:03.053Z,12.50
2018-11-25T12:58:31.883Z,13.33
2018-11-25T13:00:58.452Z,12.80
2018-11-25T13:03:26.148Z,12.30
2018-11-25T13:05:53.855Z,12.13
2018-11-25T13:08:21.446Z,12.97
2018-11-25T13:10:49.235Z,12.83
2018-11-25T13:13:17.878Z,12.30
2018-11-25T13:15:45.666Z,11.77
2018-11-25T13:18:13.312Z,12.67
2018-11-25T13:20:40.882Z,11.97
2018-11-25T13:23:08.529Z,11.93
2018-11-25T13:25:36.195Z,11.30
2018-11-25T13:28:04.096Z,11.50
2018-11-25T13:30:32.953Z,10.27
2018-11-25T13:33:01.860Z,10.57
2018-11-25T13:35:31.050Z,10.00
2018-11-25T13:37:58.638Z,10.43
2018-11-25T13:40:26.389Z,10.30
2018-11-25T13:42:53.994Z,10.47
2018-11-25T13:45:21.516Z,10.57
2018-11-25T13:47:49.158Z,10.77
2018-11-25T13:50:16.674Z,11.03
2018-11-25T13:52:44.314Z,11.30
2018-11-25T13:55:16.515Z,11.27
2018-11-25T13:57:45.678Z,11.47
2018-11-25T14:00:18.451Z,11.67
2018-11-25T14:02:50.089Z,11.83
2018-11-25T14:05:17.782Z,11.77
2018-11-25T14:07:45.403Z,11.80
2018-11-25T14:10:19.328Z,11.97
2018-11-25T14:12:47.173Z,11.80
2018-11-25T14:15:14.761Z,11.30
2018-11-25T14:17:42.430Z,13.17
2018-11-25T14:20:10.221Z,12.27
2018-11-25T14:22:38.028Z,12.00
2018-11-25T14:25:10.108Z,12.27
2018-11-25T14:27:37.706Z,12.17
2018-11-25T14:30:13.414Z,12.40
2018-11-25T14:32:38.065Z,12.70
2018-11-25T14:35:07.795Z,13.43
2018-11-25T14:37:35.753Z,13.27
2018-11-25T14:40:03.609Z,13.20
2018-11-25T14:42:31.525Z,12.47
2018-11-25T14:44:59.138Z,13.77
2018-11-25T14:47:26.959Z,13.50
2018-11-25T14:49:54.502Z,14.20
2018-11-25T14:52:22.209Z,13.87
2018-11-25T14:54:51.375Z,14.27
2018-11-25T14:57:18.308Z,13.43
2018-11-25T14:59:46.323Z,13.87
2018-11-25T15:02:14.049Z,14.23
2018-11-25T15:04:42.272Z,16.00
2018-11-25T15:07:10.881Z,15.43
2018-11-25T15:09:38.538Z,16.27
2018-11-25T15:12:06.244Z,15.40
2018-11-25T15:14:33.832Z,15.80
2018-11-25T15:17:01.464Z,15.53
2018-11-25T15:19:29.091Z,16.07
2018-11-25T15:21:56.836Z,15.90
2018-11-25T15:24:24.545Z,14.30
2018-11-25T15:26:52.094Z,13.97
2018-11-25T15:29:19.719Z,14.37
2018-11-25T15:31:47.307Z,14.30
2018-11-25T15:34:15.952Z,13.33
2018-11-25T15:36:43.565Z,14.20
2018-11-25T15:39:11.632Z,13.83
2018-11-25T15:41:54.156Z,13.97
2018-11-25T15:44:21.749Z,13.70
2018-11-25T15:46:49.317Z,14.27
2018-11-25T15:49:16.911Z,14.07
2018-11-25T15:51:44.500Z,13.23
2018-11-25T15:54:12.081Z,13.97
2018-11-25T15:56:40.085Z,12.90
2018-11-25T15:59:07.788Z,13.20
2018-11-25T16:01:35.451Z,13.20
2018-11-25T16:04:03.236Z,13.90
2018-11-25T16:06:33.782Z,13.63
2018-11-25T16:09:01.460Z,14.77
2018-11-25T16:11:29.056Z,13.30
2018-11-25T16:13:56.695Z,13.17
2018-11-25T16:16:25.255Z,14.17
2018-11-25T16:18:52.903Z,14.87
2018-11-25T16:21:20.641Z,14.87
2018-11-25T16:23:49.099Z,14.07
2018-11-25T16:26:21.261Z,14.30
2018-11-25T16:28:51.002Z,16.00
2018-11-25T16:31:18.579Z,17.87
2018-11-25T16:33:46.138Z,18.70
2018-11-25T16:36:13.902Z,17.97
2018-11-25T16:38:41.856Z,17.57
2018-11-25T16:41:09.630Z,16.63
2018-11-25T16:43:37.347Z,17.10
2018-11-25T16:46:05.368Z,18.27
2018-11-25T16:48:33.214Z,19.17
2018-11-25T16:51:00.819Z,18.73
2018-11-25T16:53:28.424Z,18.77
2018-11-25T16:55:56.144Z,18.47
2018-11-25T16:58:23.772Z,25.17
2018-11-25T17:00:52.063Z,20.50
2018-11-25T17:03:19.804Z,19.43
2018-11-25T17:05:49.355Z,19.10
2018-11-25T17:08:37.684Z,18.17
2018-11-25T17:11:06.022Z,20.93
2018-11-25T17:13:33.671Z,20.97
2018-11-25T17:16:01.412Z,21.20
2018-11-25T17:18:29.120Z,22.60
2018-11-25T17:20:56.741Z,21.80
2018-11-25T17:23:24.306Z,19.83
2018-11-25T17:25:51.844Z,19.23
2018-11-25T17:28:19.419Z,20.30
2018-11-25T17:30:46.960Z,17.23
2018-11-25T17:33:14.564Z,19.60
2018-11-25T17:35:42.238Z,19.97
2018-11-25T17:38:09.815Z,17.80
2018-11-25T17:40:38.040Z,15.87
2018-11-25T17:43:07.708Z,15.37
2018-11-25T17:45:35.424Z,15.47
2018-11-25T17:48:03.573Z,15.00
2018-11-25T17:50:31.165Z,16.13
2018-11-25T17:53:00.861Z,16.37
2018-11-25T17:55:29.440Z,15.53
2018-11-25T17:57:57.133Z,15.87
2018-11-25T18:00:44.118Z,15.30
2018-11-25T18:03:15.419Z,16.87
2018-11-25T18:05:42.932Z,15.47
2018-11-25T18:08:10.453Z,15.30
2018-11-25T18:10:37.945Z,15.73
2018-11-25T18:13:06.149Z,15.83
2018-11-25T18:15:33.694Z,17.87
2018-11-25T18:18:03.018Z,17.60
2018-11-25T18:20:35.108Z,19.40
2018-11-25T18:23:03.126Z,17.27
2018-11-25T18:25:30.676Z,17.60
2018-11-25T18:28:00.580Z,16.80
2018-11-25T18:30:26.010Z,16.77
2018-11-25T18:32:53.683Z,16.30
2018-11-25T18:35:21.245Z,16.20
2018-11-25T18:37:49.047Z,15.97
2018-11-25T18:40:16.615Z,16.57
2018-11-25T18:42:45.306Z,16.83
2018-11-25T18:45:14.417Z,16.97
2018-11-25T18:47:43.446Z,16.70
2018-11-25T18:50:12.409Z,17.87
2018-11-25T18:52:41.352Z,17.27
2018-11-25T18:55:07.794Z,16.53
2018-11-25T18:57:35.606Z,15.97
2018-11-25T19:00:05.171Z,17.63
2018-11-25T19:02:41.233Z,18.43
2018-11-25T19:05:09.079Z,18.97
2018-11-25T19:07:36.747Z,18.40
2018-11-25T19:10:11.697Z,19.43
2018-11-25T19:12:43.981Z,19.50
2018-11-25T19:15:08.806Z,18.77
2018-11-25T19:17:36.516Z,16.67
2018-11-25T19:20:17.885Z,17.10
2018-11-25T19:22:45.410Z,16.00
2018-11-25T19:25:14.687Z,17.37
2018-11-25T19:27:43.049Z,17.07
2018-11-25T19:30:12.868Z,16.70
2018-11-25T19:32:40.698Z,17.53
2018-11-25T19:35:10.597Z,19.73
2018-11-25T19:37:40.410Z,18.57
2018-11-25T19:40:13.443Z,18.40
2018-11-25T19:42:40.976Z,17.83
2018-11-25T19:45:10.402Z,17.80
2018-11-25T19:47:37.968Z,17.57
2018-11-25T19:50:10.956Z,18.30
2018-11-25T19:52:39.214Z,18.37
2018-11-25T19:55:08.051Z,17.93
2018-11-25T19:57:35.661Z,18.10
2018-11-25T20:00:04.204Z,18.43
2018-11-25T20:02:31.786Z,18.47
2018-11-25T20:04:59.554Z,17.77
2018-11-25T20:07:27.233Z,17.47
2018-11-25T20:09:54.922Z,19.03
2018-11-25T20:12:28.247Z,19.43
2018-11-25T20:14:56.131Z,20.17
2018-11-25T20:17:27.102Z,20.23
2018-11-25T20:19:54.724Z,19.67
2018-11-25T20:22:24.729Z,18.70
2018-11-25T20:24:52.298Z,17.77
2018-11-25T20:27:25.673Z,18.27
2018-11-25T20:29:53.383Z,19.37
2018-11-25T20:32:26.752Z,18.80
2018-11-25T20:34:54.327Z,18.97
2018-11-25T20:37:26.677Z,18.17
2018-11-25T20:39:50.589Z,18.17
2018-11-25T20:42:18.466Z,19.53
2018-11-25T20:44:46.173Z,22.57
2018-11-25T20:47:13.750Z,24.47
2018-11-25T20:49:41.428Z,24.73
2018-11-25T20:52:14.686Z,23.20
2018-11-25T20:54:42.325Z,23.53
2018-11-25T20:57:09.923Z,24.17
2018-11-25T20:59:37.517Z,23.90
2018-11-25T21:02:05.448Z,24.33
2018-11-25T21:04:33.115Z,23.73
2018-11-25T21:07:00.695Z,23.07
2018-11-25T21:09:28.255Z,22.50
2018-11-25T21:11:55.954Z,22.77
2018-11-25T21:14:23.756Z,22.90
2018-11-25T21:16:51.334Z,21.40
2018-11-25T21:19:18.944Z,21.20
2018-11-25T21:21:46.607Z,20.40
2018-11-25T21:24:14.437Z,20.63
2018-11-25T21:26:42.447Z,19.20
2018-11-25T21:29:10.166Z,18.03
2018-11-25T21:31:38.305Z,20.07
2018-11-25T21:34:06.512Z,18.13
2018-11-25T21:36:34.173Z,21.53
2018-11-25T21:39:01.924Z,20.10
2018-11-25T21:41:29.756Z,19.73
2018-11-25T21:43:57.697Z,23.60
2018-11-25T21:46:25.419Z,21.50
2018-11-25T21:48:52.977Z,19.83
2018-11-25T21:51:20.492Z,24.30
2018-11-25T21:53:48.056Z,50.47
2018-11-25T21:56:15.670Z,128.43
2018-11-25T21:58:43.482Z,102.60
2018-11-25T22:01:11.013Z,52.20
2018-11-25T22:03:38.501Z,33.27
2018-11-25T22:06:06.066Z,28.60
2018-11-25T22:08:33.771Z,25.33
2018-11-25T22:11:01.423Z,28.43
2018-11-25T22:13:28.944Z,27.77
2018-11-25T22:15:57.282Z,24.97
2018-11-25T22:18:24.084Z,24.80
2018-11-25T22:20:51.799Z,23.57
2018-11-25T22:23:19.329Z,24.63
2018-11-25T22:25:46.888Z,39.30
2018-11-25T22:28:14.409Z,24.20
2018-11-25T22:30:41.942Z,22.47
2018-11-25T22:33:09.489Z,23.97
2018-11-25T22:35:37.078Z,21.90
2018-11-25T22:38:04.956Z,21.83
2018-11-25T22:40:32.533Z,20.87
2018-11-25T22:43:00.080Z,20.80
2018-11-25T22:45:27.685Z,22.20
2018-11-25T22:47:55.298Z,23.27
2018-11-25T22:50:25.516Z,20.97
2018-11-25T22:52:50.563Z,25.50
2018-11-25T22:55:20.660Z,26.63
2018-11-25T22:57:48.264Z,26.30
2018-11-25T23:00:22.801Z,25.97
2018-11-25T23:02:50.387Z,25.90
2018-11-25T23:05:29.371Z,26.07
2018-11-25T23:07:56.961Z,23.73
2018-11-25T23:10:24.689Z,26.60
2018-11-25T23:12:52.300Z,26.40
2018-11-25T23:15:20.023Z,25.03
2018-11-25T23:17:47.648Z,24.97
2018-11-25T23:20:15.234Z,24.10
2018-11-25T23:22:42.749Z,22.83
2018-11-25T23:25:10.461Z,22.63
2018-11-25T23:27:38.485Z,23.00
2018-11-25T23:30:06.624Z,21.57
2018-11-25T23:32:34.221Z,22.13
2018-11-25T23:35:01.814Z,22.77
2018-11-25T23:37:30.000Z,21.23
2018-11-25T23:39:57.651Z,22.07
2018-11-25T23:42:25.226Z,22.40
2018-11-25T23:44:52.973Z,22.27
2018-11-25T23:47:20.642Z,22.43
2018-11-25T23:49:48.294Z,22.27
2018-11-25T23:52:15.934Z,21.73
2018-11-25T23:54:43.757Z,21.73
2018-11-25T23:57:11.341Z,21.03
2018-11-25T23:59:39.003Z,22.83
